createdAt,value
2017-11-15T00:02:05.461Z,14.17
2017-11-15T00:04:37.338Z,14.67
2017-11-15T00:07:07.182Z,13.47
2017-11-15T00:09:35.718Z,14.87
2017-11-15T00:12:07.351Z,14.17
2017-11-15T00:14:35.942Z,13.80
2017-11-15T00:17:03.417Z,13.30
2017-11-15T00:19:31.014Z,13.80
2017-11-15T00:21:59.403Z,14.70
2017-11-15T00:24:27.731Z,13.77
2017-11-15T00:26:55.201Z,15.50
2017-11-15T00:29:22.791Z,15.27
2017-11-15T00:31:51.139Z,16.30
2017-11-15T00:34:18.621Z,15.00
2017-11-15T00:36:46.119Z,14.97
2017-11-15T00:39:14.047Z,15.27
2017-11-15T00:41:41.658Z,15.37
2017-11-15T00:44:09.226Z,14.73
2017-11-15T00:46:36.831Z,16.00
2017-11-15T00:49:05.263Z,16.00
2017-11-15T00:51:32.747Z,16.40
2017-11-15T00:54:00.268Z,16.47
2017-11-15T00:56:27.972Z,17.73
2017-11-15T00:58:55.589Z,16.50
2017-11-15T01:01:23.097Z,17.60
2017-11-15T01:03:50.554Z,17.00
2017-11-15T01:06:18.054Z,17.27
2017-11-15T01:08:45.674Z,16.50
2017-11-15T01:11:13.942Z,17.57
2017-11-15T01:13:41.418Z,17.77
2017-11-15T01:16:09.810Z,17.13
2017-11-15T01:18:37.292Z,16.70
2017-11-15T01:21:04.926Z,17.80
2017-11-15T01:23:33.233Z,16.10
2017-11-15T01:26:00.693Z,16.90
2017-11-15T01:28:28.774Z,15.40
2017-11-15T01:30:56.262Z,19.07
2017-11-15T01:33:23.782Z,16.77
2017-11-15T01:35:51.261Z,17.77
2017-11-15T01:38:19.013Z,17.40
2017-11-15T01:40:46.531Z,16.00
2017-11-15T01:43:14.027Z,16.30
2017-11-15T01:45:41.549Z,16.53
2017-11-15T01:48:09.018Z,16.83
2017-11-15T01:50:36.547Z,14.90
2017-11-15T01:53:04.775Z,16.20
2017-11-15T01:55:32.271Z,15.57
2017-11-15T01:58:00.529Z,15.50
2017-11-15T02:00:39.793Z,16.17
2017-11-15T02:03:07.261Z,16.40
2017-11-15T02:05:35.313Z,17.30
2017-11-15T02:08:03.549Z,17.50
2017-11-15T02:10:31.540Z,16.40
2017-11-15T02:12:59.019Z,16.00
2017-11-15T02:15:27.362Z,16.93
2017-11-15T02:17:54.866Z,15.90
2017-11-15T02:20:22.337Z,15.40
2017-11-15T02:22:49.823Z,15.07
2017-11-15T02:25:17.280Z,13.77
2017-11-15T02:27:44.762Z,14.63
2017-11-15T02:30:12.230Z,14.00
2017-11-15T02:32:40.490Z,14.40
2017-11-15T02:35:07.962Z,14.70
2017-11-15T02:37:36.242Z,14.20
2017-11-15T02:40:04.665Z,14.90
2017-11-15T02:42:32.197Z,14.80
2017-11-15T02:44:59.681Z,15.00
2017-11-15T02:47:27.147Z,13.77
2017-11-15T02:49:54.623Z,14.40
2017-11-15T02:52:22.082Z,14.87
2017-11-15T02:54:49.566Z,15.23
2017-11-15T02:57:17.792Z,14.67
2017-11-15T02:59:45.291Z,15.50
2017-11-15T03:02:13.583Z,15.37
2017-11-15T03:04:41.980Z,16.73
2017-11-15T03:07:09.452Z,16.00
2017-11-15T03:09:37.065Z,16.47
2017-11-15T03:12:05.430Z,17.57
2017-11-15T03:14:32.946Z,17.20
2017-11-15T03:17:00.453Z,17.50
2017-11-15T03:19:29.223Z,17.90
2017-11-15T03:21:56.702Z,16.77
2017-11-15T03:24:24.964Z,16.07
2017-11-15T03:26:52.497Z,15.53
2017-11-15T03:29:20.066Z,16.60
2017-11-15T03:31:47.531Z,16.03
2017-11-15T03:34:15.018Z,15.70
2017-11-15T03:36:43.246Z,15.83
2017-11-15T03:39:10.730Z,15.47
2017-11-15T03:41:38.353Z,16.10
2017-11-15T03:44:05.842Z,14.97
2017-11-15T03:46:33.360Z,15.47
2017-11-15T03:49:01.172Z,15.50
2017-11-15T03:51:28.669Z,15.33
2017-11-15T03:53:56.138Z,13.57
2017-11-15T03:56:23.615Z,15.13
2017-11-15T03:58:51.100Z,14.10
2017-11-15T04:01:18.715Z,15.47
2017-11-15T04:03:46.322Z,14.13
2017-11-15T04:06:14.699Z,17.23
2017-11-15T04:08:42.204Z,15.10
2017-11-15T04:11:09.721Z,14.23
2017-11-15T04:13:38.009Z,14.60
2017-11-15T04:16:06.286Z,14.50
2017-11-15T04:18:33.827Z,15.50
2017-11-15T04:21:02.923Z,14.83
2017-11-15T04:23:30.386Z,15.60
2017-11-15T04:25:58.784Z,15.60
2017-11-15T04:28:26.413Z,14.30
2017-11-15T04:30:53.905Z,14.07
2017-11-15T04:33:21.376Z,14.70
2017-11-15T04:35:48.861Z,12.87
2017-11-15T04:38:16.551Z,13.20
2017-11-15T04:40:44.773Z,13.93
2017-11-15T04:43:12.241Z,14.67
2017-11-15T04:45:39.709Z,14.47
2017-11-15T04:48:07.186Z,14.17
2017-11-15T04:50:34.780Z,14.80
2017-11-15T04:53:02.262Z,14.93
2017-11-15T04:55:29.880Z,14.63
2017-11-15T04:57:58.221Z,13.53
2017-11-15T05:00:25.694Z,14.77
2017-11-15T05:02:53.181Z,15.60
2017-11-15T05:05:21.451Z,15.37
2017-11-15T05:07:50.126Z,15.40
2017-11-15T05:10:18.433Z,13.63
2017-11-15T05:12:45.898Z,15.90
2017-11-15T05:15:13.368Z,15.40
2017-11-15T05:17:40.947Z,14.77
2017-11-15T05:20:08.501Z,16.63
2017-11-15T05:22:36.801Z,15.37
2017-11-15T05:25:04.277Z,16.00
2017-11-15T05:27:32.539Z,14.80
2017-11-15T05:30:00.015Z,15.80
2017-11-15T05:32:28.243Z,16.47
2017-11-15T05:34:55.733Z,16.20
2017-11-15T05:37:23.975Z,15.70
2017-11-15T05:39:51.505Z,15.27
2017-11-15T05:42:18.978Z,14.70
2017-11-15T05:44:47.053Z,15.57
2017-11-15T05:47:14.825Z,13.70
2017-11-15T05:49:42.287Z,14.30
2017-11-15T05:52:09.856Z,12.83
2017-11-15T05:54:37.353Z,12.60
2017-11-15T05:57:05.569Z,12.17
2017-11-15T05:59:33.042Z,13.00
2017-11-15T06:02:00.624Z,14.50
2017-11-15T06:04:28.115Z,14.40
2017-11-15T06:06:55.590Z,14.87
2017-11-15T06:09:23.157Z,15.23
2017-11-15T06:11:50.667Z,14.60
2017-11-15T06:14:19.001Z,16.10
2017-11-15T06:16:46.494Z,16.30
2017-11-15T06:19:13.938Z,18.50
2017-11-15T06:21:41.438Z,18.27
2017-11-15T06:24:08.873Z,17.37
2017-11-15T06:26:37.126Z,18.07
2017-11-15T06:29:05.361Z,17.60
2017-11-15T06:31:32.893Z,19.30
2017-11-15T06:34:01.151Z,18.47
2017-11-15T06:36:28.665Z,19.80
2017-11-15T06:38:56.843Z,20.60
2017-11-15T06:41:24.297Z,19.47
2017-11-15T06:43:51.813Z,19.27
2017-11-15T06:46:19.407Z,20.03
2017-11-15T06:48:47.002Z,20.60
2017-11-15T06:51:14.671Z,20.90
2017-11-15T06:53:43.202Z,21.03
2017-11-15T06:56:10.666Z,20.73
2017-11-15T06:58:38.178Z,20.00
2017-11-15T07:01:06.520Z,20.10
2017-11-15T07:03:34.262Z,20.00
2017-11-15T07:06:01.832Z,21.63
2017-11-15T07:08:29.307Z,20.80
2017-11-15T07:10:56.995Z,19.00
2017-11-15T07:13:25.234Z,17.33
2017-11-15T07:15:52.706Z,18.60
2017-11-15T07:18:20.955Z,18.77
2017-11-15T07:20:48.413Z,19.30
2017-11-15T07:23:15.891Z,18.30
2017-11-15T07:25:43.558Z,20.43
2017-11-15T07:28:11.048Z,19.20
2017-11-15T07:30:38.602Z,19.93
2017-11-15T07:33:06.221Z,18.73
2017-11-15T07:35:33.687Z,19.50
2017-11-15T07:38:01.666Z,20.20
2017-11-15T07:40:29.289Z,19.60
2017-11-15T07:42:56.805Z,17.77
2017-11-15T07:45:25.121Z,19.70
2017-11-15T07:47:52.607Z,18.83
2017-11-15T07:50:20.365Z,20.97
2017-11-15T07:52:47.835Z,20.23
2017-11-15T07:55:16.082Z,23.03
2017-11-15T07:57:43.555Z,20.53
2017-11-15T08:00:11.069Z,23.40
2017-11-15T08:02:38.539Z,21.60
2017-11-15T08:05:06.106Z,24.10
2017-11-15T08:07:33.585Z,21.77
2017-11-15T08:10:01.056Z,26.00
2017-11-15T08:12:28.567Z,24.63
2017-11-15T08:14:56.152Z,23.30
2017-11-15T08:17:23.839Z,23.97
2017-11-15T08:19:52.093Z,24.17
2017-11-15T08:22:19.630Z,25.80
2017-11-15T08:24:47.127Z,23.70
2017-11-15T08:27:14.599Z,27.60
2017-11-15T08:29:42.855Z,25.30
2017-11-15T08:32:10.425Z,25.80
2017-11-15T08:34:37.965Z,25.63
2017-11-15T08:37:05.599Z,26.27
2017-11-15T08:39:33.130Z,24.60
2017-11-15T08:42:00.655Z,26.37
2017-11-15T08:44:28.909Z,24.30
2017-11-15T08:46:56.394Z,25.70
2017-11-15T08:49:24.665Z,25.17
2017-11-15T08:51:52.172Z,25.70
2017-11-15T08:54:19.643Z,26.60
2017-11-15T08:59:21.267Z,25.57
2017-11-15T09:01:49.504Z,27.43
2017-11-15T09:04:16.999Z,26.33
2017-11-15T09:06:44.492Z,25.80
2017-11-15T09:09:11.959Z,26.20
2017-11-15T09:11:39.430Z,27.07
2017-11-15T09:14:07.026Z,27.40
2017-11-15T09:16:35.523Z,27.17
2017-11-15T09:19:03.111Z,27.07
2017-11-15T09:21:30.589Z,26.70
2017-11-15T09:23:58.068Z,25.80
2017-11-15T09:26:25.546Z,28.20
2017-11-15T09:28:53.029Z,25.80
2017-11-15T09:31:20.545Z,26.57
2017-11-15T09:33:48.773Z,25.13
2017-11-15T09:36:16.372Z,25.03
2017-11-15T09:38:43.904Z,24.97
2017-11-15T09:41:11.374Z,24.90
2017-11-15T09:43:38.847Z,24.37
2017-11-15T09:46:06.458Z,24.10
2017-11-15T09:48:33.930Z,25.10
2017-11-15T09:51:01.469Z,25.53
2017-11-15T09:53:28.938Z,25.00
2017-11-15T09:55:56.406Z,23.13
2017-11-15T09:58:24.066Z,24.37
2017-11-15T10:00:51.544Z,23.50
2017-11-15T10:03:19.026Z,23.70
2017-11-15T10:05:47.274Z,24.40
2017-11-15T10:08:14.754Z,23.70
2017-11-15T10:10:42.984Z,24.07
2017-11-15T10:13:10.492Z,23.90
2017-11-15T10:15:38.007Z,23.70
2017-11-15T10:18:05.474Z,23.10
2017-11-15T10:20:33.645Z,23.00
2017-11-15T10:23:01.139Z,23.17
2017-11-15T10:25:29.391Z,24.33
2017-11-15T10:27:57.067Z,20.70
2017-11-15T10:30:25.372Z,21.17
2017-11-15T10:32:52.854Z,20.97
2017-11-15T10:35:21.821Z,22.37
2017-11-15T10:37:49.283Z,20.30
2017-11-15T10:40:16.759Z,22.00
2017-11-15T10:42:44.441Z,22.57
2017-11-15T10:45:11.903Z,24.70
2017-11-15T10:47:39.477Z,23.33
2017-11-15T10:50:08.000Z,23.30
2017-11-15T10:52:35.459Z,21.90
2017-11-15T10:55:02.938Z,24.27
2017-11-15T10:57:30.423Z,21.37
2017-11-15T10:59:58.503Z,22.30
2017-11-15T11:02:26.810Z,23.57
2017-11-15T11:04:54.298Z,19.10
2017-11-15T11:07:21.813Z,17.60
2017-11-15T11:09:49.349Z,18.50
2017-11-15T11:12:17.596Z,22.83
2017-11-15T11:14:45.048Z,19.80
2017-11-15T11:17:12.535Z,18.40
2017-11-15T11:19:40.072Z,19.13
2017-11-15T11:22:07.545Z,20.90
2017-11-15T11:24:37.977Z,21.50
2017-11-15T11:27:06.212Z,19.70
2017-11-15T11:29:33.757Z,22.87
2017-11-15T11:32:01.213Z,20.40
2017-11-15T11:34:28.686Z,22.73
2017-11-15T11:36:56.207Z,21.00
2017-11-15T11:39:23.814Z,22.33
2017-11-15T11:41:51.424Z,20.93
2017-11-15T11:44:20.149Z,22.27
2017-11-15T11:46:47.690Z,23.03
2017-11-15T11:49:15.160Z,22.07
2017-11-15T11:51:42.689Z,23.13
2017-11-15T11:54:10.212Z,23.00
2017-11-15T11:56:37.856Z,21.70
2017-11-15T11:59:05.393Z,22.67
2017-11-15T12:01:33.096Z,21.37
2017-11-15T12:04:00.628Z,21.53
2017-11-15T12:06:28.234Z,22.17
2017-11-15T12:08:56.478Z,22.70
2017-11-15T12:11:24.145Z,22.90
2017-11-15T12:13:51.687Z,24.67
2017-11-15T12:16:19.173Z,22.57
2017-11-15T12:18:46.714Z,24.57
2017-11-15T12:21:14.228Z,23.80
2017-11-15T12:23:41.720Z,25.00
2017-11-15T12:26:09.204Z,24.67
2017-11-15T12:28:36.674Z,22.33
2017-11-15T12:31:04.936Z,23.47
2017-11-15T12:33:32.411Z,22.50
2017-11-15T12:36:00.651Z,21.57
2017-11-15T12:38:28.143Z,20.17
2017-11-15T12:40:56.483Z,22.27
2017-11-15T12:43:23.974Z,22.07
2017-11-15T12:45:52.459Z,19.90
2017-11-15T12:48:20.701Z,23.47
2017-11-15T12:50:48.272Z,21.83
2017-11-15T12:53:15.757Z,23.50
2017-11-15T12:55:44.073Z,24.30
2017-11-15T12:58:11.623Z,21.23
2017-11-15T13:00:39.143Z,20.00
2017-11-15T13:03:07.643Z,20.97
2017-11-15T13:05:35.268Z,21.53
2017-11-15T13:08:04.250Z,20.90
2017-11-15T13:10:31.737Z,21.20
2017-11-15T13:12:59.986Z,20.93
2017-11-15T13:15:28.286Z,20.23
2017-11-15T13:17:56.535Z,20.43
2017-11-15T13:20:24.000Z,21.00
2017-11-15T13:22:51.639Z,20.43
2017-11-15T13:25:19.103Z,20.33
2017-11-15T13:27:46.565Z,20.00
2017-11-15T13:30:14.082Z,21.63
2017-11-15T13:32:41.623Z,20.23
2017-11-15T13:35:09.104Z,18.93
2017-11-15T13:37:36.584Z,19.40
2017-11-15T13:40:04.114Z,18.87
2017-11-15T13:42:31.615Z,19.30
2017-11-15T13:44:59.149Z,21.33
2017-11-15T13:47:26.619Z,20.70
2017-11-15T13:49:54.088Z,17.37
2017-11-15T13:52:21.663Z,19.23
2017-11-15T13:54:50.039Z,18.40
2017-11-15T13:57:18.316Z,17.30
2017-11-15T13:59:46.547Z,19.37
2017-11-15T14:02:14.152Z,19.47
2017-11-15T14:04:42.547Z,19.13
2017-11-15T14:07:10.030Z,18.27
2017-11-15T14:09:37.740Z,18.13
2017-11-15T14:12:05.215Z,16.40
2017-11-15T14:14:33.676Z,18.93
2017-11-15T14:17:01.312Z,18.73
2017-11-15T14:19:28.895Z,19.43
2017-11-15T14:21:56.431Z,16.70
2017-11-15T14:24:24.079Z,17.10
2017-11-15T14:26:51.745Z,16.90
2017-11-15T14:29:19.207Z,19.00
2017-11-15T14:31:46.786Z,16.47
2017-11-15T14:34:14.247Z,16.30
2017-11-15T14:36:41.879Z,15.97
2017-11-15T14:39:09.359Z,16.30
2017-11-15T14:41:36.834Z,15.63
2017-11-15T14:44:05.071Z,17.30
2017-11-15T14:46:32.564Z,16.37
2017-11-15T14:49:00.989Z,15.83
2017-11-15T14:51:28.570Z,16.13
2017-11-15T14:53:56.167Z,16.13
2017-11-15T14:56:23.781Z,15.13
2017-11-15T14:58:51.304Z,16.37
2017-11-15T15:01:18.768Z,16.80
2017-11-15T15:03:46.241Z,15.97
2017-11-15T15:06:13.768Z,15.93
2017-11-15T15:08:41.312Z,14.57
2017-11-15T15:11:09.562Z,15.10
2017-11-15T15:13:37.052Z,14.00
2017-11-15T15:16:05.310Z,14.47
2017-11-15T15:18:32.799Z,14.53
2017-11-15T15:21:00.388Z,14.77
2017-11-15T15:23:28.251Z,14.60
2017-11-15T15:25:55.724Z,15.63
2017-11-15T15:28:23.437Z,14.60
2017-11-15T15:30:51.790Z,14.63
2017-11-15T15:33:19.298Z,15.17
2017-11-15T15:35:47.188Z,16.03
2017-11-15T15:38:14.681Z,16.17
2017-11-15T15:40:43.085Z,15.00
2017-11-15T15:43:10.621Z,15.67
2017-11-15T15:45:39.045Z,15.27
2017-11-15T15:48:06.658Z,15.17
2017-11-15T15:50:34.920Z,14.30
2017-11-15T15:53:02.380Z,14.23
2017-11-15T15:55:29.867Z,15.40
2017-11-15T15:57:57.588Z,13.50
2017-11-15T16:00:25.184Z,14.47
2017-11-15T16:02:53.406Z,14.77
2017-11-15T16:05:20.906Z,15.00
2017-11-15T16:07:49.146Z,14.67
2017-11-15T16:10:16.664Z,15.00
2017-11-15T16:15:18.183Z,16.77
2017-11-15T16:17:45.683Z,17.77
2017-11-15T16:20:13.359Z,14.90
2017-11-15T16:22:40.820Z,15.10
2017-11-15T16:25:08.348Z,14.97
2017-11-15T16:27:36.593Z,13.47
2017-11-15T16:30:04.174Z,13.90
2017-11-15T16:32:32.494Z,13.07
2017-11-15T16:35:00.195Z,13.37
2017-11-15T16:37:27.748Z,12.90
2017-11-15T16:39:55.227Z,13.00
2017-11-15T16:42:23.763Z,13.10
2017-11-15T16:44:51.277Z,13.77
2017-11-15T16:47:19.515Z,11.87
2017-11-15T16:49:47.226Z,13.90
2017-11-15T16:52:14.771Z,16.83
2017-11-15T16:54:43.155Z,17.03
2017-11-15T16:57:10.647Z,16.47
2017-11-15T16:59:38.289Z,14.73
2017-11-15T17:02:05.769Z,13.57
2017-11-15T17:04:33.252Z,13.50
2017-11-15T17:07:00.742Z,14.00
2017-11-15T17:09:28.408Z,12.80
2017-11-15T17:11:56.684Z,12.57
2017-11-15T17:14:24.497Z,13.93
2017-11-15T17:16:52.107Z,14.03
2017-11-15T17:19:20.493Z,14.17
2017-11-15T17:21:47.977Z,14.20
2017-11-15T17:24:15.602Z,15.10
2017-11-15T17:26:43.238Z,14.77
2017-11-15T17:29:10.730Z,13.43
2017-11-15T17:31:38.256Z,14.13
2017-11-15T17:34:06.495Z,14.80
2017-11-15T17:36:33.967Z,13.50
2017-11-15T17:39:01.443Z,14.90
2017-11-15T17:41:28.936Z,14.10
2017-11-15T17:43:56.521Z,14.00
2017-11-15T17:46:24.460Z,12.13
2017-11-15T17:48:51.926Z,13.13
2017-11-15T17:51:19.642Z,11.97
2017-11-15T17:53:47.168Z,12.30
2017-11-15T17:56:14.630Z,13.20
2017-11-15T17:58:42.111Z,12.90
2017-11-15T18:01:09.587Z,11.67
2017-11-15T18:03:37.840Z,12.70
2017-11-15T18:06:05.349Z,12.00
2017-11-15T18:08:32.958Z,12.33
2017-11-15T18:11:00.587Z,11.77
2017-11-15T18:13:28.051Z,11.73
2017-11-15T18:15:55.574Z,12.03
2017-11-15T18:18:23.048Z,11.87
2017-11-15T18:20:50.518Z,12.50
2017-11-15T18:23:18.011Z,13.60
2017-11-15T18:25:45.582Z,12.83
2017-11-15T18:28:13.058Z,12.00
2017-11-15T18:30:40.622Z,11.37
2017-11-15T18:33:08.293Z,12.97
2017-11-15T18:35:36.512Z,11.73
2017-11-15T18:38:04.002Z,12.93
2017-11-15T18:40:32.243Z,12.60
2017-11-15T18:42:59.714Z,12.33
2017-11-15T18:45:27.952Z,12.23
2017-11-15T18:47:55.448Z,13.87
2017-11-15T18:50:23.090Z,13.47
2017-11-15T18:52:50.726Z,12.90
2017-11-15T18:55:18.237Z,13.73
2017-11-15T18:57:46.466Z,13.13
2017-11-15T19:00:13.952Z,13.60
2017-11-15T19:02:41.620Z,13.70
2017-11-15T19:05:09.998Z,13.00
2017-11-15T19:07:37.456Z,12.27
2017-11-15T19:10:04.931Z,12.70
2017-11-15T19:12:33.198Z,12.93
2017-11-15T19:15:01.563Z,13.13
2017-11-15T19:17:29.861Z,13.33
2017-11-15T19:19:58.214Z,12.27
2017-11-15T19:22:25.789Z,11.50
2017-11-15T19:24:54.030Z,12.80
2017-11-15T19:27:21.528Z,12.10
2017-11-15T19:29:49.765Z,12.90
2017-11-15T19:32:17.233Z,12.97
2017-11-15T19:34:44.802Z,14.33
2017-11-15T19:37:13.059Z,13.67
2017-11-15T19:39:40.709Z,13.40
2017-11-15T19:42:08.299Z,13.07
2017-11-15T19:44:35.810Z,12.90
2017-11-15T19:47:03.275Z,12.00
2017-11-15T19:49:31.348Z,13.53
2017-11-15T19:51:58.889Z,14.10
2017-11-15T19:54:26.768Z,14.30
2017-11-15T19:56:54.237Z,13.67
2017-11-15T19:59:21.853Z,16.17
2017-11-15T20:01:49.346Z,18.10
2017-11-15T20:04:16.822Z,17.23
2017-11-15T20:06:44.310Z,16.30
2017-11-15T20:09:12.762Z,15.60
2017-11-15T20:11:41.046Z,17.03
2017-11-15T20:14:08.696Z,17.33
2017-11-15T20:16:36.187Z,19.70
2017-11-15T20:19:03.718Z,18.00
2017-11-15T20:21:31.992Z,17.30
2017-11-15T20:23:59.586Z,15.23
2017-11-15T20:26:27.841Z,15.67
2017-11-15T20:28:56.145Z,15.70
2017-11-15T20:31:23.660Z,16.20
2017-11-15T20:33:51.150Z,16.60
2017-11-15T20:36:19.389Z,15.83
2017-11-15T20:38:46.968Z,14.83
2017-11-15T20:41:14.604Z,14.40
2017-11-15T20:43:42.154Z,15.90
2017-11-15T20:46:09.759Z,13.50
2017-11-15T20:48:38.171Z,13.27
2017-11-15T20:51:05.679Z,12.67
2017-11-15T20:53:33.275Z,12.87
2017-11-15T20:56:00.758Z,12.23
2017-11-15T20:58:28.275Z,13.13
2017-11-15T21:00:56.557Z,11.63
2017-11-15T21:03:24.107Z,12.00
2017-11-15T21:05:52.568Z,11.00
2017-11-15T21:08:20.175Z,10.90
2017-11-15T21:10:47.700Z,9.80
2017-11-15T21:13:17.017Z,11.00
2017-11-15T21:15:45.301Z,9.73
2017-11-15T21:18:12.797Z,9.00
2017-11-15T21:20:40.263Z,9.97
2017-11-15T21:23:07.890Z,10.00
2017-11-15T21:25:35.472Z,10.03
2017-11-15T21:28:03.158Z,9.40
2017-11-15T21:30:30.625Z,9.43
2017-11-15T21:32:59.021Z,9.00
2017-11-15T21:35:27.286Z,9.87
2017-11-15T21:37:55.563Z,8.83
2017-11-15T21:40:24.007Z,8.37
2017-11-15T21:42:51.497Z,8.80
2017-11-15T21:45:19.762Z,9.00
2017-11-15T21:47:47.279Z,8.63
2017-11-15T21:50:14.798Z,8.03
2017-11-15T21:52:43.433Z,8.70
2017-11-15T21:55:11.085Z,8.37
2017-11-15T21:57:38.571Z,9.17
2017-11-15T22:00:06.400Z,8.97
2017-11-15T22:02:34.019Z,8.10
2017-11-15T22:05:02.294Z,8.97
2017-11-15T22:07:29.763Z,8.03
2017-11-15T22:09:57.996Z,7.87
2017-11-15T22:12:25.491Z,8.33
2017-11-15T22:17:59.998Z,7.30
2017-11-15T22:20:27.851Z,8.17
2017-11-15T22:22:56.163Z,7.60
2017-11-15T22:25:24.561Z,7.80
2017-11-15T22:27:52.864Z,8.30
2017-11-15T22:30:21.097Z,7.50
2017-11-15T22:32:50.082Z,8.40
2017-11-15T22:35:24.248Z,8.00
2017-11-15T22:37:53.151Z,7.30
2017-11-15T22:40:21.225Z,7.87
2017-11-15T22:42:54.062Z,8.00
2017-11-15T22:45:21.688Z,7.10
2017-11-15T22:47:49.162Z,8.30
2017-11-15T22:50:17.410Z,7.67
2017-11-15T22:52:49.465Z,7.20
2017-11-15T22:55:17.766Z,7.10
2017-11-15T22:57:45.363Z,6.07
2017-11-15T23:00:12.847Z,7.23
2017-11-15T23:02:40.454Z,7.10
2017-11-15T23:05:09.509Z,7.00
2017-11-15T23:07:40.801Z,7.30
2017-11-15T23:10:13.176Z,7.37
2017-11-15T23:12:41.690Z,7.33
2017-11-15T23:15:09.289Z,7.30
2017-11-15T23:17:36.876Z,8.07
2017-11-15T23:20:06.347Z,6.97
2017-11-15T23:22:34.036Z,7.50
2017-11-15T23:25:03.206Z,6.87
2017-11-15T23:27:30.681Z,6.90
2017-11-15T23:29:58.291Z,6.93
2017-11-15T23:32:25.758Z,7.40
2017-11-15T23:34:53.234Z,7.77
2017-11-15T23:37:20.704Z,7.10
2017-11-15T23:39:48.157Z,8.03
2017-11-15T23:42:15.627Z,7.60
2017-11-15T23:44:43.861Z,7.80
2017-11-15T23:47:11.345Z,7.10
2017-11-15T23:49:38.836Z,7.50
2017-11-15T23:52:07.066Z,7.70
2017-11-15T23:54:34.622Z,7.53
2017-11-15T23:57:02.252Z,7.30
2017-11-15T23:59:29.764Z,7.87
